Time;durP1;ratioP1;P1;durP2;ratioP2;P2;SDS_P1;SDS_P2;PMS_P1;PMS_P2;Temp;Humidity;BMP_temperature;BMP_pressure;BME280_temperature;BME280_humidity;BME280_pressure;Samples;Min_cycle;Max_cycle;Signal;HPM_P1;HPM_P2
2023/07/15 00:01:33;;;;;;;;;;;19.50;99.90;;;;;;5076264;28;19931;-87
2023/07/15 00:04:03;;;;;;;;;;;19.50;99.90;;;;;;5093049;28;19974;-88
2023/07/15 00:06:28;;;;;;;;;;;19.50;99.90;;;;;;5093166;28;19924;-89
2023/07/15 00:08:54;;;;;;;;;;;19.50;99.90;;;;;;5109851;28;20003;-87
2023/07/15 00:11:32;;;;;;;;;;;19.50;99.90;;;;;;5061618;28;20273;-88
2023/07/15 00:13:58;;;;;;;;;;;19.50;99.90;;;;;;5110148;28;19935;-87
2023/07/15 00:16:24;;;;;;;;;;;19.50;99.90;;;;;;5106460;28;19925;-88
2023/07/15 00:18:50;;;;;;;;;;;19.50;99.90;;;;;;5075821;28;19928;-87
2023/07/15 00:21:25;;;;;;;;;;;19.50;99.90;;;;;;5109679;28;19924;-87
2023/07/15 00:23:55;;;;;;;;;;;19.50;99.90;;;;;;5076150;28;19970;-87
2023/07/15 00:26:22;;;;;;;;;;;19.80;99.90;;;;;;5075285;28;20257;-88
2023/07/15 00:28:49;;;;;;;;;;;19.60;99.90;;;;;;5109888;28;19924;-88
2023/07/15 00:31:18;;;;;;;;;;;19.60;99.90;;;;;;5092528;28;19928;-87
2023/07/15 00:33:48;;;;;;;;;;;19.60;99.90;;;;;;5075873;28;19947;-88
2023/07/15 00:36:18;;;;;;;;;;;19.60;99.90;;;;;;5085494;28;19973;-87
2023/07/15 00:38:48;;;;;;;;;;;19.60;99.90;;;;;;5091488;28;19931;-88
2023/07/15 00:41:22;;;;;;;;;;;19.40;99.90;;;;;;5108907;28;19959;-89
2023/07/15 00:43:51;;;;;;;;;;;19.50;99.90;;;;;;5075403;28;20275;-87
2023/07/15 00:46:26;;;;;;;;;;;19.10;99.90;;;;;;5092385;28;20334;-87
2023/07/15 00:49:13;;;;;;;;;;;19.60;99.90;;;;;;5075797;28;19959;-88
2023/07/15 00:51:40;;;;;;;;;;;19.50;99.90;;;;;;5126271;27;19973;-88
2023/07/15 00:54:06;;;;;;;;;;;19.50;99.90;;;;;;5092590;28;19943;-88
2023/07/15 00:56:34;;;;;;;;;;;19.50;99.90;;;;;;5108824;28;19924;-87
2023/07/15 00:58:59;;;;;;;;;;;19.40;99.90;;;;;;5075566;28;19931;-88
2023/07/15 01:01:25;;;;;;;;;;;19.40;99.90;;;;;;5075609;28;19924;-88
2023/07/15 01:03:53;;;;;;;;;;;19.40;99.90;;;;;;5075586;28;20418;-87
2023/07/15 01:06:19;;;;;;;;;;;19.40;99.90;;;;;;5109117;28;19924;-88
2023/07/15 01:08:45;;;;;;;;;;;19.30;99.90;;;;;;5109187;28;19924;-88
2023/07/15 01:11:10;;;;;;;;;;;19.30;99.90;;;;;;5074321;28;19985;-87
2023/07/15 01:13:38;;;;;;;;;;;19.40;99.90;;;;;;5075554;28;20495;-87
2023/07/15 01:16:07;;;;;;;;;;;19.30;99.90;;;;;;5075692;28;19946;-87
2023/07/15 01:18:42;;;;;;;;;;;19.30;99.90;;;;;;5108389;28;19925;-87
2023/07/15 01:23:56;;;;;;;;;;;19.30;99.90;;;;;;5106471;28;20012;-88
2023/07/15 01:26:22;;;;;;;;;;;19.30;99.90;;;;;;5065921;28;19947;-88
2023/07/15 01:28:49;;;;;;;;;;;19.30;99.90;;;;;;5082848;28;20407;-87
2023/07/15 01:31:18;;;;;;;;;;;19.30;99.90;;;;;;5073217;28;19981;-88
2023/07/15 01:33:47;;;;;;;;;;;19.30;99.90;;;;;;5078986;28;20430;-87
2023/07/15 01:36:15;;;;;;;;;;;19.30;99.90;;;;;;5075544;28;19931;-88
2023/07/15 01:38:46;;;;;;;;;;;19.30;99.90;;;;;;5109598;28;19931;-87
2023/07/15 01:41:12;;;;;;;;;;;19.30;99.90;;;;;;5091091;28;19931;-87
2023/07/15 01:43:38;;;;;;;;;;;19.30;99.90;;;;;;5075197;28;19924;-87
2023/07/15 01:46:04;;;;;;;;;;;19.40;99.90;;;;;;5075108;28;19924;-88
2023/07/15 01:48:29;;;;;;;;;;;19.40;99.90;;;;;;5058529;28;20417;-88
2023/07/15 01:50:56;;;;;;;;;;;19.40;99.90;;;;;;5074491;28;19924;-89
2023/07/15 01:53:21;;;;;;;;;;;19.40;99.90;;;;;;5074892;28;19982;-87
2023/07/15 01:55:47;;;;;;;;;;;19.50;99.90;;;;;;5094463;28;19935;-89
2023/07/15 01:58:13;;;;;;;;;;;19.50;99.90;;;;;;5099445;28;19946;-88
2023/07/15 02:00:38;;;;;;;;;;;19.50;99.90;;;;;;5136218;28;19912;-88
2023/07/15 02:03:07;;;;;;;;;;;19.60;99.90;;;;;;5111911;28;19928;-87
2023/07/15 02:05:32;;;;;;;;;;;19.60;99.90;;;;;;5101867;28;19932;-88
2023/07/15 02:08:00;;;;;;;;;;;19.20;99.90;;;;;;5114351;28;20248;-88
2023/07/15 02:10:29;;;;;;;;;;;19.60;99.90;;;;;;5096681;28;19935;-87
2023/07/15 02:12:54;;;;;;;;;;;19.70;99.90;;;;;;5115361;28;19931;-87
2023/07/15 02:15:22;;;;;;;;;;;19.70;99.90;;;;;;5081385;28;19924;-87
2023/07/15 02:17:49;;;;;;;;;;;19.70;99.90;;;;;;5076594;28;19932;-87
2023/07/15 02:20:15;;;;;;;;;;;19.70;99.90;;;;;;5095171;28;19951;-88
2023/07/15 02:22:41;;;;;;;;;;;19.70;99.90;;;;;;5078506;28;20352;-88
2023/07/15 02:25:07;;;;;;;;;;;19.70;99.90;;;;;;5112440;28;19924;-89
2023/07/15 02:27:32;;;;;;;;;;;19.70;99.90;;;;;;5077763;28;19928;-87
2023/07/15 02:29:58;;;;;;;;;;;19.70;99.90;;;;;;5094966;28;20345;-87
2023/07/15 02:32:49;;;;;;;;;;;19.70;99.90;;;;;;5104772;28;19949;-88
2023/07/15 02:35:15;;;;;;;;;;;19.70;99.90;;;;;;5088417;28;19928;-87
2023/07/15 02:37:46;;;;;;;;;;;19.70;99.90;;;;;;5078336;28;19924;-87
2023/07/15 02:40:12;;;;;;;;;;;19.70;99.90;;;;;;5077542;28;20427;-86
2023/07/15 02:42:38;;;;;;;;;;;19.70;99.90;;;;;;5093804;28;20015;-87
2023/07/15 02:45:05;;;;;;;;;;;19.70;99.90;;;;;;5078201;28;19932;-87
2023/07/15 02:47:31;;;;;;;;;;;19.70;99.90;;;;;;5077740;28;19924;-88
2023/07/15 02:50:00;;;;;;;;;;;19.70;99.90;;;;;;5111677;27;19928;-87
2023/07/15 02:52:26;;;;;;;;;;;19.70;99.90;;;;;;5106187;28;19970;-87
2023/07/15 02:54:51;;;;;;;;;;;19.60;99.90;;;;;;5094536;28;19924;-88
2023/07/15 02:57:19;;;;;;;;;;;19.60;99.90;;;;;;5077117;28;19928;-87
2023/07/15 02:59:49;;;;;;;;;;;19.50;99.90;;;;;;5094594;28;19924;-86
2023/07/15 03:02:15;;;;;;;;;;;19.60;99.90;;;;;;5094367;28;20248;-87
2023/07/15 03:04:41;;;;;;;;;;;19.60;99.90;;;;;;5077668;28;20221;-89
2023/07/15 03:07:09;;;;;;;;;;;19.60;99.90;;;;;;5073377;28;19928;-88
2023/07/15 03:09:38;;;;;;;;;;;19.50;99.90;;;;;;5103101;28;19975;-87
2023/07/15 03:12:04;;;;;;;;;;;18.80;99.90;;;;;;5092733;28;19924;-87
2023/07/15 03:14:29;;;;;;;;;;;19.40;99.90;;;;;;5128153;27;20010;-88
2023/07/15 03:16:58;;;;;;;;;;;19.50;99.90;;;;;;5077202;28;19931;-87
2023/07/15 03:19:31;;;;;;;;;;;19.40;99.90;;;;;;5093611;28;20328;-88
2023/07/15 03:22:04;;;;;;;;;;;19.50;99.90;;;;;;5110648;28;19931;-87
2023/07/15 03:24:33;;;;;;;;;;;19.50;99.90;;;;;;5093830;28;19924;-87
2023/07/15 03:26:58;;;;;;;;;;;19.40;99.90;;;;;;5127240;27;19984;-88
2023/07/15 03:29:24;;;;;;;;;;;19.40;99.90;;;;;;5094262;28;20011;-87
2023/07/15 03:31:50;;;;;;;;;;;19.40;99.90;;;;;;5093437;28;20355;-87
2023/07/15 03:34:16;;;;;;;;;;;19.40;99.90;;;;;;5107986;28;19947;-89
2023/07/15 03:36:42;;;;;;;;;;;19.40;99.90;;;;;;5076742;28;19931;-87
2023/07/15 03:39:10;;;;;;;;;;;19.30;99.90;;;;;;5076861;28;19924;-88
2023/07/15 03:41:39;;;;;;;;;;;19.20;99.90;;;;;;5075541;28;19924;-87
2023/07/15 03:44:04;;;;;;;;;;;20.20;99.90;;;;;;5110707;28;20022;-88
2023/07/15 03:46:32;;;;;;;;;;;19.20;99.90;;;;;;5076035;28;20014;-87
2023/07/15 03:49:00;;;;;;;;;;;19.20;99.90;;;;;;5092955;28;19924;-88
2023/07/15 03:51:35;;;;;;;;;;;19.10;99.90;;;;;;5066525;28;19927;-87
2023/07/15 03:54:01;;;;;;;;;;;19.10;99.90;;;;;;5093366;28;20292;-88
2023/07/15 03:56:27;;;;;;;;;;;19.10;99.90;;;;;;5092498;28;19928;-88
2023/07/15 03:58:52;;;;;;;;;;;18.40;99.90;;;;;;5076282;28;19931;-88
2023/07/15 04:01:27;;;;;;;;;;;18.10;99.90;;;;;;5076276;28;20019;-87
2023/07/15 04:03:53;;;;;;;;;;;19.00;99.90;;;;;;5077663;28;20283;-87
2023/07/15 04:06:19;;;;;;;;;;;19.30;99.90;;;;;;5093025;28;19930;-87
2023/07/15 04:08:45;;;;;;;;;;;18.10;99.90;;;;;;5127257;27;19950;-87
2023/07/15 04:11:13;;;;;;;;;;;18.90;99.90;;;;;;5092373;28;19924;-87
2023/07/15 04:13:41;;;;;;;;;;;18.10;99.90;;;;;;5110548;28;19978;-87
2023/07/15 04:16:07;;;;;;;;;;;18.60;99.90;;;;;;5059106;28;20423;-87
2023/07/15 04:18:35;;;;;;;;;;;18.90;99.90;;;;;;5108311;28;19967;-88
2023/07/15 04:21:03;;;;;;;;;;;19.00;99.90;;;;;;5091370;28;19949;-90
2023/07/15 04:23:28;;;;;;;;;;;19.00;99.90;;;;;;5075758;28;19931;-88
2023/07/15 04:25:54;;;;;;;;;;;19.00;99.90;;;;;;5126405;27;19924;-88
2023/07/15 04:28:25;;;;;;;;;;;19.10;99.90;;;;;;5075693;28;19924;-88
2023/07/15 04:30:50;;;;;;;;;;;19.00;99.90;;;;;;5092704;28;19981;-87
2023/07/15 04:33:26;;;;;;;;;;;19.10;99.90;;;;;;5092881;28;20428;-89
2023/07/15 04:35:55;;;;;;;;;;;18.50;99.90;;;;;;5087656;28;19931;-87
2023/07/15 04:38:22;;;;;;;;;;;18.50;99.90;;;;;;5090373;28;19938;-89
2023/07/15 04:40:48;;;;;;;;;;;19.10;99.90;;;;;;5071251;28;19931;-89
2023/07/15 04:43:13;;;;;;;;;;;19.10;99.90;;;;;;5108363;28;19925;-87
2023/07/15 04:45:41;;;;;;;;;;;19.10;99.90;;;;;;5092640;28;19924;-87
2023/07/15 04:48:17;;;;;;;;;;;19.10;99.90;;;;;;5109089;28;19928;-87
2023/07/15 04:50:45;;;;;;;;;;;19.10;99.90;;;;;;5123426;27;20265;-88
2023/07/15 04:53:11;;;;;;;;;;;19.10;99.90;;;;;;5106060;28;19928;-87
2023/07/15 04:55:37;;;;;;;;;;;18.30;99.90;;;;;;5073193;28;19928;-87
2023/07/15 04:58:03;;;;;;;;;;;19.20;99.90;;;;;;5103545;28;19924;-89
2023/07/15 05:00:31;;;;;;;;;;;19.40;99.90;;;;;;5092435;28;20010;-88
2023/07/15 05:02:59;;;;;;;;;;;19.40;99.90;;;;;;5116923;28;19932;-88
2023/07/15 05:05:25;;;;;;;;;;;19.50;99.90;;;;;;5104029;28;19965;-87
2023/07/15 05:07:55;;;;;;;;;;;19.50;99.90;;;;;;5131170;28;19955;-89
2023/07/15 05:10:23;;;;;;;;;;;19.50;99.90;;;;;;5099747;28;19979;-88
2023/07/15 05:12:54;;;;;;;;;;;19.50;99.90;;;;;;5103604;28;19913;-91
2023/07/15 05:15:20;;;;;;;;;;;19.50;99.90;;;;;;5096996;28;19934;-87
2023/07/15 05:17:46;;;;;;;;;;;19.60;99.90;;;;;;5111005;28;19956;-87
2023/07/15 05:20:15;;;;;;;;;;;19.60;99.90;;;;;;5075788;28;19924;-87
2023/07/15 05:22:41;;;;;;;;;;;19.50;99.90;;;;;;5075642;28;19931;-88
2023/07/15 05:25:14;;;;;;;;;;;19.50;99.90;;;;;;5092173;28;19928;-89
2023/07/15 05:27:43;;;;;;;;;;;19.60;99.90;;;;;;5108459;28;19985;-87
2023/07/15 05:30:09;;;;;;;;;;;19.60;99.90;;;;;;5094409;28;20288;-87
2023/07/15 05:32:34;;;;;;;;;;;19.60;99.90;;;;;;5078764;28;19924;-87
2023/07/15 05:35:02;;;;;;;;;;;19.60;99.90;;;;;;5113065;28;19931;-87
2023/07/15 05:37:28;;;;;;;;;;;19.70;99.90;;;;;;5112748;28;20396;-88
2023/07/15 05:39:56;;;;;;;;;;;19.70;99.90;;;;;;5058011;28;19924;-87
2023/07/15 05:42:22;;;;;;;;;;;19.20;99.90;;;;;;5095211;28;19924;-89
2023/07/15 05:44:51;;;;;;;;;;;20.20;99.90;;;;;;5079248;28;19925;-87
2023/07/15 05:47:17;;;;;;;;;;;19.70;99.90;;;;;;5096042;28;19948;-86
2023/07/15 05:49:45;;;;;;;;;;;19.80;99.90;;;;;;5095992;28;19928;-88
2023/07/15 05:52:11;;;;;;;;;;;19.80;99.90;;;;;;5095735;28;19924;-87
2023/07/15 05:54:36;;;;;;;;;;;19.80;99.90;;;;;;5095998;28;19939;-87
2023/07/15 05:57:07;;;;;;;;;;;19.90;99.90;;;;;;5078118;28;20018;-87
2023/07/15 05:59:33;;;;;;;;;;;19.40;99.90;;;;;;5130022;27;19924;-88
2023/07/15 06:01:58;;;;;;;;;;;19.90;99.90;;;;;;5095759;28;19931;-88
2023/07/15 06:04:29;;;;;;;;;;;19.90;99.90;;;;;;5086209;28;19928;-87
2023/07/15 06:06:55;;;;;;;;;;;20.00;99.90;;;;;;5078528;28;19928;-88
2023/07/15 06:09:23;;;;;;;;;;;20.00;99.90;;;;;;5078386;28;19924;-87
2023/07/15 06:11:49;;;;;;;;;;;20.10;99.90;;;;;;5077359;28;19924;-87
2023/07/15 06:14:15;;;;;;;;;;;20.10;99.90;;;;;;5095628;28;19977;-88
2023/07/15 06:16:40;;;;;;;;;;;20.20;99.90;;;;;;5090318;28;20327;-87
2023/07/15 06:19:11;;;;;;;;;;;20.20;99.90;;;;;;5093302;28;20027;-87
2023/07/15 06:21:39;;;;;;;;;;;20.30;99.90;;;;;;5062465;28;19954;-87
2023/07/15 06:24:13;;;;;;;;;;;20.40;99.90;;;;;;5078493;28;20046;-87
2023/07/15 06:26:41;;;;;;;;;;;20.60;99.90;;;;;;5105551;28;20367;-88
2023/07/15 06:29:07;;;;;;;;;;;20.90;99.90;;;;;;5085485;28;20114;-88
2023/07/15 06:31:32;;;;;;;;;;;21.00;99.90;;;;;;5061437;28;19924;-86
2023/07/15 06:34:00;;;;;;;;;;;21.10;99.90;;;;;;5084821;28;20011;-86
2023/07/15 06:36:39;;;;;;;;;;;21.20;99.90;;;;;;5095078;28;19931;-88
2023/07/15 06:39:04;;;;;;;;;;;21.20;99.90;;;;;;5112134;28;20384;-87
2023/07/15 06:41:32;;;;;;;;;;;21.30;99.90;;;;;;5092568;28;19974;-88
2023/07/15 06:43:58;;;;;;;;;;;21.30;99.90;;;;;;5095362;28;20023;-87
2023/07/15 06:46:27;;;;;;;;;;;21.30;99.90;;;;;;5078526;28;20061;-88
2023/07/15 06:48:55;;;;;;;;;;;21.30;99.90;;;;;;5095694;28;20082;-87
2023/07/15 06:51:22;;;;;;;;;;;21.40;99.90;;;;;;5094826;28;19928;-87
2023/07/15 06:53:47;;;;;;;;;;;21.50;99.90;;;;;;5106715;28;20020;-87
2023/07/15 06:56:13;;;;;;;;;;;21.60;99.90;;;;;;5093969;28;19925;-87
2023/07/15 06:58:39;;;;;;;;;;;21.70;99.90;;;;;;5077683;28;19924;-88
2023/07/15 07:01:04;;;;;;;;;;;21.80;99.90;;;;;;5077615;28;19982;-88
2023/07/15 07:03:30;;;;;;;;;;;21.90;99.90;;;;;;5077635;28;19947;-87
2023/07/15 07:05:58;;;;;;;;;;;22.00;99.90;;;;;;5111036;28;19932;-85
2023/07/15 07:08:24;;;;;;;;;;;22.00;99.90;;;;;;5111511;28;20002;-85
2023/07/15 07:10:53;;;;;;;;;;;22.10;99.90;;;;;;5110296;28;19990;-88
2023/07/15 07:13:21;;;;;;;;;;;22.10;99.90;;;;;;5111143;28;19924;-87
2023/07/15 07:15:50;;;;;;;;;;;22.10;99.90;;;;;;5107499;28;20007;-87
2023/07/15 07:18:18;;;;;;;;;;;22.10;99.90;;;;;;5093454;28;19924;-89
2023/07/15 07:20:45;;;;;;;;;;;22.10;99.90;;;;;;5077049;28;20257;-87
2023/07/15 07:23:11;;;;;;;;;;;21.90;99.90;;;;;;5094105;28;19982;-87
2023/07/15 07:25:40;;;;;;;;;;;22.10;99.90;;;;;;5093771;28;20309;-87
2023/07/15 07:28:08;;;;;;;;;;;22.20;99.90;;;;;;5076450;28;19924;-87
2023/07/15 07:30:41;;;;;;;;;;;21.50;99.90;;;;;;5075585;28;19924;-87
2023/07/15 07:33:09;;;;;;;;;;;22.30;99.90;;;;;;5069083;28;19935;-88
2023/07/15 07:35:34;;;;;;;;;;;22.30;99.90;;;;;;5110684;28;20383;-87
2023/07/15 07:38:01;;;;;;;;;;;22.40;99.90;;;;;;5093608;28;19924;-88
2023/07/15 07:40:26;;;;;;;;;;;22.50;99.90;;;;;;5093660;28;19938;-88
2023/07/15 07:42:52;;;;;;;;;;;22.40;99.90;;;;;;5075797;28;20283;-87
2023/07/15 07:45:20;;;;;;;;;;;22.50;99.90;;;;;;5093533;28;19931;-87
2023/07/15 07:47:46;;;;;;;;;;;22.00;99.90;;;;;;5076636;28;19969;-87
2023/07/15 07:50:14;;;;;;;;;;;22.60;99.90;;;;;;5093126;28;19969;-87
2023/07/15 07:52:40;;;;;;;;;;;22.80;99.90;;;;;;5110097;28;19947;-88
2023/07/15 07:55:06;;;;;;;;;;;23.00;99.90;;;;;;5127633;27;19924;-89
2023/07/15 07:57:31;;;;;;;;;;;23.10;99.90;;;;;;5109823;28;19924;-90
2023/07/15 07:59:57;;;;;;;;;;;23.00;99.90;;;;;;5093533;28;19967;-88
2023/07/15 08:02:25;;;;;;;;;;;23.50;99.90;;;;;;5072561;28;20034;-87
2023/07/15 08:04:51;;;;;;;;;;;23.20;99.90;;;;;;5075967;28;20414;-87
2023/07/15 08:07:17;;;;;;;;;;;23.20;99.90;;;;;;5076494;28;19979;-88
2023/07/15 08:09:42;;;;;;;;;;;23.20;99.90;;;;;;5076400;28;20019;-87
2023/07/15 08:12:08;;;;;;;;;;;23.20;99.90;;;;;;5095715;28;19912;-86
2023/07/15 08:14:36;;;;;;;;;;;23.20;99.90;;;;;;5117759;28;19924;-88
2023/07/15 08:17:02;;;;;;;;;;;23.30;99.90;;;;;;5106987;28;19946;-87
2023/07/15 08:19:27;;;;;;;;;;;23.40;99.90;;;;;;5078245;28;19991;-88
2023/07/15 08:21:53;;;;;;;;;;;23.50;99.90;;;;;;5094957;28;19924;-88
2023/07/15 08:24:19;;;;;;;;;;;23.50;99.90;;;;;;5060562;28;20023;-88
2023/07/15 08:26:45;;;;;;;;;;;23.50;99.90;;;;;;5109089;28;19924;-87
2023/07/15 08:29:10;;;;;;;;;;;23.60;99.90;;;;;;5092599;28;19924;-87
2023/07/15 08:31:38;;;;;;;;;;;23.50;99.90;;;;;;5126916;27;19928;-87
2023/07/15 08:34:04;;;;;;;;;;;23.50;99.90;;;;;;5092912;28;20023;-86
2023/07/15 08:36:30;;;;;;;;;;;23.60;99.90;;;;;;5069022;28;20019;-88
2023/07/15 08:38:55;;;;;;;;;;;23.60;99.90;;;;;;5102410;28;19925;-87
2023/07/15 08:41:24;;;;;;;;;;;23.60;99.90;;;;;;5124416;27;19936;-86
2023/07/15 08:43:50;;;;;;;;;;;23.60;99.90;;;;;;5109256;28;19934;-87
2023/07/15 08:46:26;;;;;;;;;;;23.60;99.90;;;;;;5107838;28;19946;-87
2023/07/15 08:48:52;;;;;;;;;;;23.70;99.90;;;;;;5100657;28;19973;-88
2023/07/15 08:51:21;;;;;;;;;;;23.90;99.90;;;;;;5087418;28;20011;-87
2023/07/15 08:53:46;;;;;;;;;;;24.00;99.90;;;;;;5075904;28;20263;-87
2023/07/15 08:56:13;;;;;;;;;;;24.20;99.90;;;;;;5091464;28;19931;-87
2023/07/15 08:58:39;;;;;;;;;;;24.30;99.90;;;;;;5109650;28;19924;-87
2023/07/15 09:01:04;;;;;;;;;;;24.40;99.90;;;;;;5084020;28;19973;-87
2023/07/15 09:03:30;;;;;;;;;;;24.50;99.90;;;;;;5058964;28;19924;-86
2023/07/15 09:05:55;;;;;;;;;;;24.30;99.90;;;;;;5058413;28;19931;-87
2023/07/15 09:08:24;;;;;;;;;;;24.50;99.90;;;;;;5109318;28;19924;-86
2023/07/15 09:10:53;;;;;;;;;;;24.50;99.90;;;;;;5091662;28;19931;-87
2023/07/15 09:13:23;;;;;;;;;;;24.60;99.90;;;;;;5075333;28;19924;-87
2023/07/15 09:15:49;;;;;;;;;;;24.60;99.90;;;;;;5109170;28;19924;-87
2023/07/15 09:18:15;;;;;;;;;;;24.50;99.90;;;;;;5075433;28;19977;-87
2023/07/15 09:20:43;;;;;;;;;;;24.30;99.90;;;;;;5092041;28;19978;-87
2023/07/15 09:23:09;;;;;;;;;;;24.20;99.90;;;;;;5092911;28;19931;-87
2023/07/15 09:25:37;;;;;;;;;;;24.20;99.90;;;;;;5109709;28;20022;-87
2023/07/15 09:28:07;;;;;;;;;;;24.10;99.90;;;;;;5080860;28;19924;-87
2023/07/15 09:30:32;;;;;;;;;;;24.10;99.90;;;;;;5093294;28;19964;-88
2023/07/15 09:32:58;;;;;;;;;;;24.00;99.90;;;;;;5101104;28;19967;-88
2023/07/15 09:35:34;;;;;;;;;;;24.00;99.90;;;;;;5058858;28;19924;-86
2023/07/15 09:37:59;;;;;;;;;;;24.10;99.90;;;;;;5109152;28;19969;-88
2023/07/15 09:40:25;;;;;;;;;;;24.30;99.90;;;;;;5108730;28;19928;-87
2023/07/15 09:42:54;;;;;;;;;;;24.40;99.90;;;;;;5057323;28;20169;-87
2023/07/15 09:45:33;;;;;;;;;;;24.50;99.90;;;;;;5066200;28;19977;-88
2023/07/15 09:47:58;;;;;;;;;;;24.50;99.90;;;;;;5087609;28;19928;-88
2023/07/15 09:50:25;;;;;;;;;;;24.60;99.90;;;;;;5071732;28;19925;-87
2023/07/15 09:52:53;;;;;;;;;;;24.70;99.90;;;;;;5098304;28;20237;-87
2023/07/15 09:55:18;;;;;;;;;;;25.00;99.90;;;;;;5108342;28;19925;-87
2023/07/15 09:57:44;;;;;;;;;;;25.30;99.90;;;;;;5074666;28;19970;-87
2023/07/15 10:00:11;;;;;;;;;;;25.50;99.90;;;;;;5090480;28;19928;-87
2023/07/15 10:02:44;;;;;;;;;;;25.50;99.90;;;;;;5100746;28;19940;-88
2023/07/15 10:05:13;;;;;;;;;;;25.40;99.90;;;;;;5074979;28;20356;-87
2023/07/15 10:07:40;;;;;;;;;;;25.50;99.90;;;;;;5108853;28;19947;-86
2023/07/15 10:10:07;;;;;;;;;;;25.60;99.90;;;;;;5091652;28;19969;-88
2023/07/15 10:12:34;;;;;;;;;;;25.80;99.90;;;;;;5090814;28;19939;-86
2023/07/15 10:15:00;;;;;;;;;;;25.80;99.90;;;;;;5075100;28;19924;-86
2023/07/15 10:17:32;;;;;;;;;;;25.70;99.90;;;;;;5110981;28;19924;-86
2023/07/15 10:20:04;;;;;;;;;;;25.40;99.90;;;;;;5078486;28;19938;-89
2023/07/15 10:22:34;;;;;;;;;;;25.40;99.90;;;;;;5078582;28;19924;-86
2023/07/15 10:25:04;;;;;;;;;;;25.30;99.90;;;;;;5105427;28;19929;-85
2023/07/15 10:27:31;;;;;;;;;;;25.40;99.90;;;;;;5073697;28;19924;-86
2023/07/15 10:30:16;;;;;;;;;;;25.30;99.90;;;;;;5078591;28;19924;-85
2023/07/15 10:33:08;;;;;;;;;;;25.30;99.90;;;;;;5127568;27;19931;-86
2023/07/15 10:35:35;;;;;;;;;;;24.90;99.90;;;;;;5099041;28;20284;-86
2023/07/15 10:38:19;;;;;;;;;;;25.50;99.90;;;;;;5094965;28;20003;-85
2023/07/15 10:41:00;;;;;;;;;;;25.60;99.90;;;;;;5103194;28;20280;-86
2023/07/15 10:43:34;;;;;;;;;;;25.80;99.90;;;;;;5111706;28;19993;-85
2023/07/15 10:46:10;;;;;;;;;;;26.10;99.90;;;;;;5079611;28;19925;-86
2023/07/15 10:48:42;;;;;;;;;;;26.40;99.90;;;;;;5113781;28;20020;-86
2023/07/15 10:51:08;;;;;;;;;;;26.70;99.90;;;;;;5113097;28;19924;-85
2023/07/15 10:53:34;;;;;;;;;;;26.90;99.90;;;;;;5094969;28;20284;-86
2023/07/15 10:56:03;;;;;;;;;;;27.00;99.90;;;;;;5077097;28;20494;-85
2023/07/15 10:58:32;;;;;;;;;;;26.90;99.90;;;;;;5094752;28;19932;-86
2023/07/15 11:01:00;;;;;;;;;;;26.90;99.90;;;;;;5077786;28;20368;-87
2023/07/15 11:03:26;;;;;;;;;;;26.80;99.90;;;;;;5094544;28;19993;-85
2023/07/15 11:05:54;;;;;;;;;;;26.80;99.90;;;;;;5094257;28;19969;-87
2023/07/15 11:08:25;;;;;;;;;;;26.80;99.90;;;;;;5077281;28;20441;-86
2023/07/15 11:11:06;;;;;;;;;;;26.90;99.90;;;;;;5076750;28;19975;-86
2023/07/15 11:13:35;;;;;;;;;;;26.90;99.90;;;;;;5099412;28;19930;-87
2023/07/15 11:16:18;;;;;;;;;;;26.90;99.90;;;;;;5151493;27;19950;-86
2023/07/15 11:18:46;;;;;;;;;;;26.90;99.90;;;;;;5112849;28;19932;-88
2023/07/15 11:21:12;;;;;;;;;;;26.70;99.90;;;;;;5098062;28;19924;-89
2023/07/15 11:23:38;;;;;;;;;;;26.70;99.90;;;;;;5104911;28;20379;-87
2023/07/15 11:26:10;;;;;;;;;;;26.70;99.90;;;;;;5080709;28;20027;-89
2023/07/15 11:28:48;;;;;;;;;;;26.70;99.90;;;;;;5111426;28;19924;-86
2023/07/15 11:31:14;;;;;;;;;;;26.90;99.90;;;;;;5111798;28;19942;-87
2023/07/15 11:33:40;;;;;;;;;;;26.90;99.90;;;;;;5078122;28;19924;-86
2023/07/15 11:36:05;;;;;;;;;;;26.90;99.90;;;;;;5077680;28;19974;-86
2023/07/15 11:38:36;;;;;;;;;;;26.90;99.90;;;;;;5077932;28;19924;-86
2023/07/15 11:41:02;;;;;;;;;;;26.90;99.90;;;;;;5076593;28;20324;-87
2023/07/15 11:43:31;;;;;;;;;;;26.80;99.90;;;;;;5092928;28;19924;-86
2023/07/15 11:46:00;;;;;;;;;;;26.80;99.90;;;;;;5076511;28;20388;-86
2023/07/15 11:48:33;;;;;;;;;;;26.70;99.90;;;;;;5074878;28;19982;-86
2023/07/15 11:51:06;;;;;;;;;;;26.60;99.90;;;;;;5067238;28;19924;-85
2023/07/15 11:53:35;;;;;;;;;;;26.70;99.90;;;;;;5107795;28;19927;-86
2023/07/15 11:56:00;;;;;;;;;;;26.70;99.90;;;;;;5075983;28;19924;-86
2023/07/15 11:58:48;;;;;;;;;;;27.20;99.90;;;;;;5093090;28;19981;-86
2023/07/15 12:01:15;;;;;;;;;;;26.80;99.90;;;;;;5093287;28;19924;-85
2023/07/15 12:03:41;;;;;;;;;;;26.90;99.90;;;;;;5076523;28;19924;-87
2023/07/15 12:06:14;;;;;;;;;;;26.90;99.90;;;;;;5093274;28;19999;-87
2023/07/15 12:08:40;;;;;;;;;;;26.80;99.90;;;;;;5076345;28;19927;-87
2023/07/15 12:11:05;;;;;;;;;;;26.70;99.90;;;;;;5109261;28;20439;-86
2023/07/15 12:13:31;;;;;;;;;;;26.70;99.90;;;;;;5093265;28;19924;-86
2023/07/15 12:15:57;;;;;;;;;;;26.90;99.90;;;;;;5093200;28;20456;-86
2023/07/15 12:18:22;;;;;;;;;;;27.00;99.90;;;;;;5084106;28;19931;-86
2023/07/15 12:20:48;;;;;;;;;;;27.10;99.90;;;;;;5075783;28;19924;-87
2023/07/15 12:23:21;;;;;;;;;;;27.10;99.90;;;;;;5092980;28;19975;-87
2023/07/15 12:25:47;;;;;;;;;;;27.20;99.90;;;;;;5093360;28;20465;-88
2023/07/15 12:28:13;;;;;;;;;;;27.30;99.90;;;;;;5056849;28;19927;-86
2023/07/15 12:30:38;;;;;;;;;;;26.60;99.90;;;;;;5104913;28;19930;-87
2023/07/15 12:33:04;;;;;;;;;;;27.40;99.90;;;;;;5126870;27;19930;-85
2023/07/15 12:35:30;;;;;;;;;;;27.30;99.90;;;;;;5076158;28;19924;-87
2023/07/15 12:38:01;;;;;;;;;;;27.10;99.90;;;;;;5075723;28;19924;-87
2023/07/15 12:40:29;;;;;;;;;;;27.00;99.90;;;;;;5074994;28;19946;-86
2023/07/15 12:42:57;;;;;;;;;;;26.50;99.90;;;;;;5074472;28;19925;-87
2023/07/15 12:45:25;;;;;;;;;;;27.00;99.90;;;;;;5092749;28;20356;-85
2023/07/15 12:47:51;;;;;;;;;;;27.00;99.90;;;;;;5108411;28;19975;-87
2023/07/15 12:50:16;;;;;;;;;;;27.20;99.90;;;;;;5092297;28;20316;-86
2023/07/15 12:52:44;;;;;;;;;;;27.50;99.90;;;;;;5075407;28;20010;-87
2023/07/15 12:55:10;;;;;;;;;;;27.70;99.90;;;;;;5066555;28;19924;-89
2023/07/15 12:57:38;;;;;;;;;;;27.90;99.90;;;;;;5076497;28;19931;-86
2023/07/15 13:00:05;;;;;;;;;;;28.00;99.90;;;;;;5094836;28;19924;-88
2023/07/15 13:02:33;;;;;;;;;;;27.80;99.90;;;;;;5110136;28;19924;-88
2023/07/15 13:05:05;;;;;;;;;;;27.50;99.90;;;;;;5078026;28;19931;-87
2023/07/15 13:07:34;;;;;;;;;;;27.50;99.90;;;;;;5075854;28;19928;-86
2023/07/15 13:10:00;;;;;;;;;;;27.90;99.90;;;;;;5071437;28;19931;-88
2023/07/15 13:12:26;;;;;;;;;;;28.00;99.90;;;;;;5074467;28;19924;-86
2023/07/15 13:14:54;;;;;;;;;;;28.00;99.90;;;;;;5092377;28;19928;-87
2023/07/15 13:17:20;;;;;;;;;;;26.90;99.90;;;;;;5083497;28;20315;-88
2023/07/15 13:19:46;;;;;;;;;;;28.20;99.90;;;;;;5075393;28;19941;-86
2023/07/15 13:22:14;;;;;;;;;;;28.20;99.80;;;;;;5092060;28;19924;-87
2023/07/15 13:24:40;;;;;;;;;;;28.30;99.30;;;;;;5092985;28;19924;-86
2023/07/15 13:27:08;;;;;;;;;;;28.30;99.60;;;;;;5108245;28;19947;-87
2023/07/15 13:29:34;;;;;;;;;;;28.50;99.80;;;;;;5075870;28;20355;-87
2023/07/15 13:31:59;;;;;;;;;;;28.60;99.90;;;;;;5075108;28;19971;-87
2023/07/15 13:34:25;;;;;;;;;;;28.70;98.40;;;;;;5075187;28;20252;-85
2023/07/15 13:36:53;;;;;;;;;;;28.60;98.50;;;;;;5075170;28;20035;-86
2023/07/15 13:39:57;;;;;;;;;;;28.60;98.40;;;;;;5092339;28;19924;-86
2023/07/15 13:42:22;;;;;;;;;;;28.50;98.20;;;;;;4999331;28;19926;-86
2023/07/15 13:44:49;;;;;;;;;;;28.60;97.80;;;;;;5058196;28;19973;-86
2023/07/15 13:47:17;;;;;;;;;;;27.70;98.30;;;;;;5101185;28;20390;-86
2023/07/15 13:49:43;;;;;;;;;;;28.90;98.10;;;;;;5088138;28;19931;-86
2023/07/15 13:52:09;;;;;;;;;;;28.80;97.10;;;;;;5095223;28;20041;-87
2023/07/15 13:54:35;;;;;;;;;;;28.70;97.30;;;;;;5112519;28;19981;-86
2023/07/15 13:57:01;;;;;;;;;;;28.80;97.30;;;;;;5099059;28;20069;-86
2023/07/15 13:59:26;;;;;;;;;;;28.30;97.30;;;;;;5078980;28;19928;-87
2023/07/15 14:01:53;;;;;;;;;;;28.30;98.60;;;;;;5103952;28;19983;-86
2023/07/15 14:04:21;;;;;;;;;;;28.00;96.30;;;;;;5112019;28;20360;-87
2023/07/15 14:06:48;;;;;;;;;;;27.70;97.90;;;;;;5088037;28;19962;-87
2023/07/15 14:09:14;;;;;;;;;;;27.60;99.50;;;;;;5078829;28;19977;-87
2023/07/15 14:11:40;;;;;;;;;;;27.50;98.80;;;;;;5077391;28;20018;-86
2023/07/15 14:14:10;;;;;;;;;;;27.00;99.00;;;;;;5103828;28;19975;-87
2023/07/15 14:16:38;;;;;;;;;;;27.00;98.50;;;;;;5130190;28;19981;-86
2023/07/15 14:19:06;;;;;;;;;;;27.00;98.90;;;;;;5101210;28;19962;-86
2023/07/15 14:21:34;;;;;;;;;;;26.90;99.70;;;;;;5118474;28;20013;-88
2023/07/15 14:24:04;;;;;;;;;;;27.10;99.90;;;;;;5120430;28;19935;-87